Filtrer par Nom Sexe Groupe d'age
Gassin Golfe de Saint-Tropez GranFondo 2016
RG. DOS. TEMPS CAT RG. POINTS
1 132 SALA STEFANO 04:39:29 E 1 300.00 villasanta mb, Italie
2 176 LORTHIOIR PAUL-EMILE 04:44:42 C 1 300.00 Vitrolles, France
3 143 DE WISPELAERE ARNO 04:44:48 C 2 299.00 GENT, BELGIQUE
4 119 FELDMAN RICHARD 04:46:31 E 2 299.00 KETCHUM, ETATS UNIS
5 196 BOUSQUET PASCAL 04:46:33 E 3 298.00 SEILLANS, FRANCE
6 169 OULES FABIEN 04:46:34 D 1 300.00 LE PRADET, FRANCE
7 219 GUEYDON JULIEN 04:46:38 C 3 298.00 Castellar, France
8 178 FIORENTINO PATRICK 04:46:41 E 4 297.00 MARSEILLE, FRANCE
9 148 CHAVANON JEAN_LUC 04:46:43 F 1 300.00 St Martin D Heres, France
10 524 PULIDORI JEROME 04:46:52 D 2 299.00 LE CANNET, FRANCE
11 192 LOUF MAXIME 04:47:04 C 4 297.00 SAINT CHAMAS, FRANCE
12 201 ALLASIA ANTHONY 04:47:24 D 3 298.00 MARSEILLE, FRANCE
13 180 SWAN DAVID 04:47:38 C 5 296.00 AIX EN PROVENCE, FRANCE
14 382 GRAU MARSAL ROGER 04:51:36 D 4 297.00 HOSTALETS DE BALANYA, ESPAGNE
15 174 MENARD FRANCK 04:51:46 D 5 296.00 CHOLET, FRANCE
16 22 LOURD RODOLPHE 04:51:52 D 6 295.00 FONTAINE, France
17 210 RAYBAUD NICOLAS 04:51:55 D 7 294.00 EYMEUX, France
18 218 HORDNES VEBJORN 04:52:09 C 6 295.00 , FRANCE
19 525 FERRERO ROMAN 04:52:16 C 7 294.00 GRIMAUD, FRANCE
20 491 SKUPKE KRZYSZTOF 04:53:05 D 8 293.00 HERRSCHING, Allemagne
21 371 PAUWELS STIJN 04:53:06 D 9 292.00 SCHELDEWINDEKE, BELGIQUE
22 409 REIXACH HOMS FRANCESC 04:53:13 C 8 293.00 TARADELL, ESPAGNE
23 208 DICK STEVEN 04:53:15 E 5 296.00 Machelen-Zulte, Belgique
24 177 BECARUD THOMAS 04:53:34 C 9 292.00 MANOSQUE, France
25 420 DESCHAMPS GUILLAUME 04:53:37 C 10 291.00 PARIS, FRANCE
26 528 POOS CHRISTIAN 04:53:51 D 10 291.00 LUXEMBOURG, LUXEMBOURG
27 421 MARCEAU OLIVIER 04:54:02 E 6 295.00 VALBONNE, FRANCE
28 153 RABUSSIER OLIVIER 04:54:26 E 7 294.00 LA VALETTE DU VAR, FRANCE
29 137 VANDENBUSSCHE RON 04:57:49 D 11 290.00 GENTBRUGGE, BELGIQUE
30 206 BOLLE JEAN-PASCAL 05:00:33 D 12 289.00 GENT, BELGIQUE
31 151 BEENAERTS JAN 05:00:37 F 2 299.00 BALEN, BELGIQUE
32 172 LAINE CHRISTOPHE 05:01:25 E 8 293.00 LA SEYNE S/MER, FRANCE
33 501 HOFERT CHRISTOPHE 05:02:05 E 9 292.00 FREJUS, FRANCE
34 168 GILLY HERV 05:03:53 E 10 291.00 DIGNE LES BAINS, FRANCE
35 145 QUERE MICHEL 05:04:20 F 3 298.00 MEYLAN, FRANCE
36 112 VANITELLI FABRIZIO 05:04:27 F 4 297.00 FORLǪ, ITALIE
37 202 DE VOS PIET 05:06:07 E 11 290.00 LIEDEKERKE, BELGIQUE
38 25 WESSELS FRANS 05:06:26 F 5 296.00 OOSTERHOUT, Pays-bas
39 140 POTIER GUILLAUME 05:06:27 D 13 288.00 LA CIOTAT, France
40 380 LUIGI FILIPAZZI 05:06:28 F 6 295.00 BOVISIO MASCIAGO MB, ITALIE
41 107 RUSINOWICZ DANIEL 05:06:56 F 7 294.00 MOULEZAN, FRANCE
42 182 SCALES RICHARD 05:07:18 E 12 289.00 VALBONNE, FRANCE
43 165 GRIMMELPONT GEOFFREY 05:07:31 E 13 288.00 LE BIZET, BELGIQUE
44 170 BLEUSE BRUNO 05:07:42 F 8 293.00 ST ZACHARIE, FRANCE
45 116 TRINEL JEROME 05:08:56 D 14 287.00 LESTREM, France
46 473 POUSSIN SAMUEL 05:09:18 E 14 287.00 may sur orne, France
47 506 JEANDEL BENOIT 05:09:20 D 15 286.00 LES FORGES, FRANCE
48 460 FRAICHE KEVIN 05:09:33 C 11 290.00 GIŠRES, FRANCE
49 203 DE LEEUW JELLE 05:09:39 D 16 285.00 LIEDEKERKE, BELGIQUE
50 109 SOUILLIART ANTHONY 05:09:46 D 17 284.00 vaucresson, France
51 171 MOGGIA MICHEL 05:09:47 G1 1 300.00 TOULON, FRANCE
52 146 KINDER FREDERIC 05:09:52 E 15 286.00 GRENOBLE, FRANCE
53 317 DE WITTE JURGEN 05:10:17 E 16 285.00 TIELRODE, Belgique
54 483 DESSEAUX LUDOVIC 05:10:21 E 17 284.00 ROQUEVAIRE, FRANCE
55 368 PHILIPPE FREDERIC 05:10:27 E 18 283.00 PIERREFEU DU VAR, FRANCE
56 457 VANDENABEELE EMILL 05:10:30 C 12 289.00 Dentergem, Belgique
57 378 CORREGGIO PASCAL 05:10:31 F 9 292.00 PIERREVERT, France
58 125 BOUDOT ROMAIN 05:12:00 E 19 282.00 SORNAY, FRANCE
59 200 RONCA MARC 05:14:59 E 20 281.00 GARDANNE, FRANCE
60 530 SERTIC FRANCK 05:15:12 E 21 280.00 Luxembourg , Luxembourg
61 154 DELLAI GIOVANNI 05:15:54 E 22 279.00 SURESNES, FRANCE
62 160 VAN DE VELDE GUNTHER 05:16:24 D 18 283.00 HARELBEKE, BELGIQUE
63 23 RENAUD SEBASTIEN 05:19:51 D 19 282.00 Aubonne, Suisse
64 158 PIATON LOIC 05:21:33 D 20 281.00 ANNECY, FRANCE
65 318 LOGAN PAUL 05:21:44 E 23 278.00 HAMPSTEAD GARDENS, FRANCE
66 16 ROOSE YANNIK 05:21:55 E 24 277.00 BRUXELLES, Belgique
67 494 MOURET JULIEN 05:22:03 D 21 280.00 COGOLIN, FRANCE
68 543 GIRAUD NICOLAS 05:22:47 D 22 279.00 STE LIVRADE SUR LOT, FRANCE
69 320 PROUST JEROME 05:22:52 E 25 276.00 ISLE, France
70 451 GUIET FREDERIC 05:23:00 E 26 275.00 VALLET, FRANCE
71 186 LE MOIGNE GILDAS 05:23:18 E 27 274.00 VENCE, FRANCE
72 216 TEMPORELLI KARINE 05:23:23 AB 1 300.00 , FRANCE
73 381 SANS SALGOT MARTINA 05:23:29 A 1 300.00 HOSTALETS DE BALANYA, ESPAGNE
74 507 REVIGLIO PHILIPPE 05:23:32 E 28 273.00 , FRANCE
75 440 FARRUGIO JEANPIERRE 05:23:33 F 10 291.00 ST PERE, FRANCE
76 444 FERBACH ALAN 05:23:47 C 13 288.00 ROQUEBRUNE-SUR-ARGENS, FRANCE
77 310 LAUREYS STIJN 05:24:02 C 14 287.00 GRIMBERGEN, Belgique
78 392 ROUSSOULY NICOLAS 05:24:26 D 23 278.00 MOUGINS, FRANCE
79 111 HERRBACH JEAN LUC 05:24:38 F 11 290.00 BADONVILLER, France
80 455 SCHEYER ANDREW 05:24:42 C 15 286.00 MARSEILLE, FRANCE
81 114 BROCAS LAURENT 05:24:55 D 24 277.00 TOULOUSE, France
82 536 CHARRE MARTIAL 05:25:10 E 29 272.00 , FRANCE
83 449 NEDERLOF EDWIN 05:25:46 E 30 271.00 DEN HAAG, Pays-Bas
84 493 TOP ALEXANDRE 05:26:34 D 25 276.00 BAILLEUL, FRANCE
85 157 VILLENEUVE MICHEL 05:26:59 E 31 270.00 MARSEILLE, France
86 541 SERVAES LUC 05:26:59 F 12 289.00 VILLENEUVE SUR LOT, FRANCE
87 513 CACHON LIONEL 05:27:09 E 32 269.00 MIRAMAS, FRANCE
88 193 CARME SERGE 05:27:16 F 13 288.00 PLAN DE CUQUES, FRANCE
89 175 PIANTONI SILVANO 05:27:28 F 14 287.00 LUXEMBOURG, Luxembourg
90 480 OSSENBLOK BART 05:27:34 C 16 285.00 BORGERHOUT, BELGIQUE
91 415 GRZEGORZEK HENRI 05:28:57 G1 2 299.00 LAMORLAYE, FRANCE
92 302 DEDEYNE ANDY 05:29:04 E 33 268.00 GELUWE, BELGIQUE
93 211 STUURMAN LINDA 05:29:48 A 2 299.00 Capelle a/d IJssel, Pays-Bas
94 526 MIGLIORE MICHAEL 05:30:52 E 34 267.00 LA LONDE, FRANCE
95 509 CASI FREDERIC 05:32:04 F 15 286.00 FREJUS, FRANCE
96 516 SIMON YVES 05:32:37 G1 3 298.00 ACCOLAY, FRANCE
97 73 MARTIN CLAUDE 05:32:44 G2 1 300.00 CHARTRES, FRANCE
98 549 GIRAUDO GIUSEPPE 05:32:50 E 35 266.00 , ITALIE
99 373 DESSEREY SEBASTIEN 05:32:55 D 26 275.00 Saint Jean de la ruelle, France
100 439 GIOVAGNINI FREDERIC 05:33:09 E 36 265.00 VILLENEUVE LOUBET, FRANCE
101 179 BARRAUD THOMAS 05:33:13 F 16 285.00 ST VALLIER DE THIEY, FRANCE
102 52 JIMENEZ NOEL 05:33:17 G1 4 297.00 CHAPONOST, France
103 398 HOLLVILLE PATRICE 05:33:19 E 37 264.00 CAMON, FRANCE
104 147 ROCHE JEAN FRANCOIS 05:33:30 G1 5 296.00 LEDIGNAN, France
105 412 BEENAERTS JAN 05:33:30 F 17 284.00 Balen, Belgique
106 517 RICHECOEUR ALEXANDRE 05:33:33 E 38 263.00 SIGNES, FRANCE
107 139 BOURREAU JACQUES 05:33:36 F 18 283.00 COGOLIN, France
108 500 DE POTTER LAURENT 05:33:36 E 39 262.00 FREJUS, FRANCE
109 220 DUPUY FLORIAN 05:33:37 C 17 284.00 , FRANCE
110 120 WILS REMI 05:33:39 G1 6 295.00 MOL, BELGIQUE
111 346 KRETZSCHMAR RENE 05:33:39 F 19 282.00 SCHORDORF- WEILER, Allemagne
112 156 LENOIR PATRICE 05:33:42 F 20 281.00 DAMMARIE LES LYS, FRANCE
113 162 SANTI CLAUDE 05:33:43 G1 7 294.00 GRASSE, FRANCE
114 437 ZAID LAKHDAR 05:33:52 E 40 261.00 ST CYR SUR MER, FRANCE
115 55 RICHARD MICHEL 05:33:56 G2 2 299.00 LIBOURNE, France
116 26 CLEMENT LAURENT 05:33:58 F 21 280.00 ANNONAY, France
117 438 CABROL JEAN JAK 05:34:04 F 22 279.00 CHARLEVAL, FRANCE
118 183 MUNIER CHRISTOPHE 05:34:19 E 41 260.00 EYGUIERES, FRANCE
119 379 LEYS PASCAL 05:34:43 F 23 278.00 BRUGGE, BELGIQUE
120 159 ESPOSITO ANDRE 05:35:00 G1 8 293.00 SAINT JEAN DE MAURIENNE, France
121 152 PETIT ELISABETH 05:35:05 AB 2 299.00 DRAGUIGNAN, France
122 523 CHESSERON JOEL 05:35:15 F 24 277.00 vivy, France
123 212 CALVI BRUNO 05:36:12 G1 9 292.00 ST PIERRE D ALBIGNY, FRANCE
124 399 GUILLARD HERVE 05:37:02 E 42 259.00 PARIS, FRANCE
125 198 MARAGA CLAUDE 05:37:47 G1 10 291.00 LAMBESC, France
126 496 DE PRETER KEVIN 05:38:20 D 27 274.00 BREDENE, Belgique
127 75 FALCONNET PIERRE ALAIN 05:38:24 E 43 258.00 VOIRON, FRANCE
128 323 NOUWEN LUC 05:38:27 F 25 276.00 LINDEN, BELGIQUE
129 527 DANIELS JEAN-LUC 05:38:33 G1 11 290.00 la londe les maures, France
130 117 LAURENT CEDRIC 05:38:41 E 44 257.00 PARIS, FRANCE
131 333 VANDORPE FLILIP 05:38:44 E 45 256.00 Drongen, Belgique
132 118 GROS STEPHANIE 05:39:20 AB 3 298.00 PARIS, FRANCE
133 80 JOURDOIS LUDOVIC 05:39:43 F 26 275.00 CHIPILLY, France
134 14 NAEGELY GUY 05:39:46 G1 12 289.00 THANN, France
135 319 METHERELL ANDREW 05:40:13 E 46 255.00 NYON, SUISSE
136 322 OELDERIK GERT JAN 05:40:32 F 27 274.00 UTRECHT, Pays-Bas
137 191 CONCEDIEU YVES 05:40:36 G1 13 288.00 SAINT RAPHA‰L, FRANCE
138 316 CHRISTIAENS DAVY 05:40:56 D 28 273.00 Lokeren, Belgique
139 161 VAN EWIJK PAUL 05:41:03 E 47 254.00 IJmuiden, Pays-Bas
140 472 GEIST STEPHEN 05:41:49 G1 14 287.00 SP RACSDES, FRANCE
141 123 MOLINARO FRANCK 05:42:29 E 48 253.00 CANNES, FRANCE
142 185 DECARNE CLEMENT 05:42:36 C 18 283.00 LA GARDE, FRANCE
143 478 Haricot Fabien 05:42:44 F 28 273.00 FREJUS, France
144 195 VANSTRYTHEM SVEN 05:42:52 D 29 272.00 HAALTERT, BELGIQUE
145 108 REBUFFEL PIERRICK 05:43:08 D 30 271.00 Lyon, France
146 393 GIOVANNI EUSEBIO 05:44:09 F 29 272.00 LIMBIATE, ITALIE
147 366 ROBERT THOMAS 05:44:46 E 49 252.00 MARSEILLE, France
148 207 SADONES MICHEL 05:45:48 E 50 251.00 LA HESTRE, BELGIQUE
149 221 SIGUENZA BERNARD 05:46:39 G1 15 286.00 TOURNUS, France
150 468 DESCHEMAKER FRANCK 05:46:52 F 30 271.00 PERNES LES FONTAINES, FRANCE
151 352 CROS JULIEN 05:47:02 D 31 270.00 NICE, FRANCE
152 394 LEFEBVRE FREDERIC 05:47:03 E 51 250.00 PARGNY LES REIMS, FRANCE
153 199 GALLEZOT RENE 05:47:19 F 31 270.00 VENCE, FRANCE
154 424 BOUCHARD PATRICK 05:47:40 E 52 249.00 zug, Suisse
155 130 GIACOMO PAGLIA 05:47:48 G1 16 285.00 BARLASSINA, ITALIE
156 461 WOUTERS PATRICK 05:47:57 F 32 269.00 ZOERSEL, BELGIQUE
157 325 HERREMANS ALEXIS 05:48:11 D 32 269.00 OVERIJSE, Belgique
158 21 VILLANCE JULIEN 05:48:30 G2 3 298.00 FAYS LES VENEURS, Belgique
159 357 HOGEWIND RONALD 05:48:31 E 53 248.00 UTRECHT, Pays-Bas
160 353 DLUHOSCH RUDOLF 05:48:42 F 33 268.00 WINTERBACH, ALLEMAGNE
161 133 BUQUET PAUL 05:49:04 G1 17 284.00 orange, France
162 181 TESTOU MANON 05:50:25 A 3 298.00 ANTIBES, FRANCE
163 307 DUTOT PAUL 05:50:42 D 33 268.00 BEAUVAIS, France
164 410 BALLUS VALLS MARC 05:50:48 D 34 267.00 SANT BARTOMEU DEL GRAU, ESPAGNE
165 341 BOUILLOT FRANCK 05:50:55 E 54 247.00 TRÉON, France
166 15 BECAM JEAN-YVES 05:51:01 G1 18 283.00 CHOLET, France
167 502 BARNIER DOMINIQUE 05:51:01 F 34 267.00 SOLLIES PONT, FRANCE
168 534 PISSOT XAVIER 05:51:32 E 55 246.00 LE MANS, FRANCE
169 537 BALTHAZARD SYLVAIN 05:51:42 F 35 266.00 , FRANCE
170 538 VICIANA CLAUDE 05:51:42 E 56 245.00 , FRANCE
171 503 BOURDONNEC YANN 05:52:12 E 57 244.00 LA CRAU, FRANCE
172 115 SCHIRTZ SERGE 05:53:09 E 58 243.00 FENTAGE, Luxembourg
173 510 PELCOURT CYRIL 05:53:17 E 59 242.00 LA GARDE, FRANCE
174 485 PRESI ERIC 05:53:34 F 36 265.00 MOUANS-SARTOUX, FRANCE
175 508 REVIGLIO LAURENCE 05:53:50 AB 4 297.00 , FRANCE
176 309 MORTON IAIN 05:54:13 E 60 241.00 NOAILLES, FRANCE
177 163 DRUON MARC 05:54:20 F 37 264.00 VITROLLES, France
178 204 BOUMON BART 05:54:40 D 35 266.00 DENDERLEEUW, BELGIQUE
179 539 MICHEL BENOIT 05:54:41 D 36 265.00 , FRANCE
180 184 BOUISSON THOMAS 05:54:46 C 19 282.00 LA GARDE, FRANCE
181 364 DELIGNY GWENAEL 05:54:47 E 61 240.00 BIOT, FRANCE
182 194 GOODWIN VICKI 05:56:23 AB 5 296.00 PLAN-LES-OUATES, Suisse
183 470 CHABERT DOMINIQUE 05:56:34 F 38 263.00 NIMES, France
184 406 ROVETTO GIOVANNI 05:57:00 G1 19 282.00 SALUZZO, ITALIE
185 475 REMI PIETERS 05:57:00 F 39 262.00 Hazebrouck, France
186 481 GARDIN FREDERIC 05:58:15 E 62 239.00 CARNOUX EN PROVENCE, FRANCE
187 423 ? ? 05:58:20 J 1 300.00 ,
188 367 MORTAIN NICOLAS 05:58:23 F 40 261.00 NICE, FRANCE
189 512 CAUDRON DAVID 05:58:43 E 63 238.00 FONTENOY, FRANCE
190 164 PIQUET DAVID 05:59:08 E 64 237.00 CHOLET, FRANCE
191 397 CREYX JOEL 05:59:08 E 65 236.00 mery sur oise, France
192 343 MIRAULT STEPHANE 05:59:09 E 66 235.00 mery sur oise, France
193 375 MALLET CYRIL 06:00:18 D 37 264.00 BRESLES, France
194 463 BRUNET YOHAN 06:01:03 C 20 281.00 CERNUSSON, FRANCE
195 213 VECRIN JEAN CLAUDE 06:01:05 G2 4 297.00 VIDAUBAN, FRANCE
196 453 CAZAUX STEVEN 06:02:11 E 67 234.00 LE BAR SUR LOUP, FRANCE
197 474 MOULINIER ANTHONY 06:02:21 C 21 280.00 CHOLET, FRANCE
198 167 MENETRIER JOEL 06:02:54 F 41 260.00 AUBAGNE, FRANCE
199 452 POURCEL NICOLAS 06:03:36 E 68 233.00 CHATEAUNEUF-GRASSE, FRANCE
200 544 MOIROUX THIERRY 06:03:43 F 42 259.00 POLEYMIEYX, FRANCE
201 358 VAN T HAG JOHAN 06:04:45 E 69 232.00 Amersfoort, Pays-Bas
202 374 CORTADA LUDOVIC 06:04:53 D 38 263.00 CHATEAUDUN, FRANCE
203 433 LEROY DANIEL 06:04:55 E 70 231.00 HAM-SUR-HEURE, Belgique
204 197 BONFILS FRANCOIS 06:05:25 F 43 258.00 LA FARLEDE, France
205 312 WESTLING HENRIK 06:06:00 E 71 230.00 ST RAPHAEL, France
206 520 LANSSENS FERDY 06:06:04 F 44 257.00 Roeselare, Belgique
207 376 VINCENT PATRICK 06:06:18 G1 20 281.00 CONTES, FRANCE
208 435 COVIZZI ROLAND 06:06:23 F 45 256.00 NOAILLY, FRANCE
209 425 ROULOT GLENN 06:06:36 E 72 229.00 SAINT GERMAIN SUR AVRE, FRANCE
210 190 COSTA ALEXANDRE 06:06:40 E 73 228.00 RAMATUELLE, FRANCE
211 515 BAUVE MAXIME 06:08:17 C 22 279.00 GASSIN, FRANCE
212 476 GIBELLI CHRISTOPHE 06:09:55 D 39 262.00 NICE, FRANCE
213 414 ROUSSET SBASTIEN 06:10:01 E 74 227.00 TOULON, FRANCE
214 347 MUSSO CEDRIC 06:10:27 D 40 261.00 ROQUEBRUNE CAP MARTIN, FRANCE
215 324 CHASPOUL FLORIAN 06:10:28 C 23 278.00 MENTON, FRANCE
216 330 AURELIO QUARTI 06:10:36 F 46 255.00 LAINATE, ITALIE
217 205 CORNELIS GUNTHER 06:10:39 E 75 226.00 DENDERLEEUW, BELGIQUE
218 344 CALCOEN DAVID 06:14:20 F 47 254.00 GISTEL, BELGIQUE
219 542 LEMOSY CLAUDE 06:15:27 G1 21 280.00 CHAGEY, FRANCE
220 340 DENOLLY SYLVAIN 06:16:57 D 41 260.00 REVEL-TOURDAN, FRANCE
221 144 BOUJARD CHRISTIAN 06:17:01 E 76 225.00 SECHILIENNE, France
222 311 DEVROE JOHAN 06:17:47 E 77 224.00 DESSELGEM, Belgique
223 389 FIORI PIERRE 06:17:54 C 24 277.00 SAINT-RAPHAEL, FRANCE
224 464 BOMMELAERE ERIC 06:18:12 F 48 253.00 LANAY SUR MER, FRANCE
225 166 TABARET DOMINIQUE 06:19:16 G1 22 279.00 VERNIOZ, France
226 13 STANESCO JOEL 06:20:16 G1 23 278.00 AUCALEUC, France
227 377 MELLI DELFO 06:20:18 E 78 223.00 MOUGINS, FRANCE
228 488 HADDOU ABDELKADER 06:20:20 E 79 222.00 NIMES, FRANCE
229 429 DEMAN JAN 06:22:37 F 49 252.00 CHAM, SUISSE
230 430 CORDEIRO MIGUEL 06:22:38 E 80 221.00 Baar, Suisse
231 29 THOMAS IVOR 06:23:52 I 1 300.00 STRATFORD ON AVON, Royaume-uni
232 63 RUSSIAS JACQUES 06:24:19 G2 5 296.00 AMBERT, France
233 511 DALSTRA THEO 06:25:41 F 50 251.00 OUDEHANK, Pays-Bas
234 407 GALLEANI UMBERTA 06:25:53 B 1 300.00 CARAGLIO CN, ITALIE
235 40 FRANCK GUILLAUME 06:27:08 E 81 220.00 CALUIRE ET CUIRE, France
236 7 LACOSTE JEAN-LUC 06:27:22 F 51 250.00 TAIN-L HERMITAGE, France
237 385 BAILEY WILLIAM 06:28:54 F 52 249.00 SURREY, Royaume-uni
238 74 TRIVIN CAROLINE 06:29:02 AB 6 295.00 VOIRON, FRANCE
239 360 WICHERTJES LEX 06:29:56 E 82 219.00 SOEST, Pays-Bas
240 362 BOT RIEN 06:29:56 F 53 248.00 Soest, Pays-Bas
241 400 HAEFELI HANS 06:30:42 F 54 247.00 KETTON, UK
242 401 RATCLIFFE ANTHONY 06:30:42 F 55 246.00 HARBOROUGH MAGNA, UK
243 188 DUNEUFGERMAIN FLORENT 06:30:42 E 83 218.00 ALLONVILLE, France
244 335 ROBERTO TAVANO 06:30:47 D 42 259.00 LAINATE, ITALIE
245 328 CESARE AIRAGHI 06:30:47 E 84 217.00 PARABIAGO, ITALIE
246 329 JUAN LUIS ALHAJA GARCIA 06:30:47 D 43 258.00 PARABIAGO, ITALIE
247 331 MARCO TRAMONTINI 06:30:48 D 44 257.00 ORIGGIO, ITALIE
248 342 BRET GREGORY 06:31:20 E 85 216.00 PARIS, France
249 369 DEPUYT PAUL 06:36:33 G1 24 277.00 KNOKKE, BELGIQUE
250 370 NERINCKX KRISTEL 06:36:35 B 2 299.00 KNOKKE, BELGIQUE
251 416 BLANC ALEXANDRE 06:38:29 C 25 276.00 NEUILLY SUR SEINE, FRANCE
252 17 THUREAU GISELE 06:39:50 B 3 298.00 CHOLET, France
253 355 ? ? 06:40:54 J 2 299.00 ,
254 136 ALLO OLIVIER 06:43:40 I 2 299.00 ST LAURENT DU VAR, FRANCE
255 103 ROTH ROBERT 06:44:03 G1 25 276.00 VERVIERS, Belgique
256 482 STARCK JEAN LUC 06:44:11 F 56 245.00 ETZLING, FRANCE
257 418 DELAGE FREDERIC 06:44:15 E 86 215.00 PEYNIER, France
258 492 ZANY SERGE 06:46:15 C 26 275.00 MEYRARGUES, FRANCE
259 308 SIDER FABRICE 06:48:43 E 87 214.00 SALON DE PROVENCE, FRANCE
260 514 PANNAUX MICHAEL 06:50:01 D 45 256.00 BESANCON, FRANCE
261 356 TEN BOKKEL HUININK DAAN 06:50:29 F 57 244.00 ZEIST, Pays-bas
262 443 GILLOT ALAIN 06:52:32 G1 26 275.00 FRAHIER ET CHATEBIER, FRANCE
263 390 LACAPELLE CAROLINE 06:52:40 AB 7 294.00 la ciotat, France
264 522 THEIN ALAIN 06:53:03 J 3 298.00 PETANGE, LUXEMBOURG
265 372 TALPE ALEXANDER 06:54:58 D 46 255.00 Zwevegem, Belgique
266 4 MONTIGNY ALAIN 06:55:51 I 3 298.00 LUGON ET L ILE DU CARNEY, France
267 155 DUBUC PATRICK 06:55:54 F 58 243.00 LONGUEAU, France
268 106 POISSE FLORIAN 06:57:14 D 47 254.00 CALUIRE, FRANCE
269 49 TRONEL JEAN - JACQUES 06:57:26 G2 6 295.00 Saint Colomban des Villards, France
270 408 COLIN ERIC 06:58:13 F 59 242.00 SAINTE MAXIME, France
271 442 PIERLUIGI TANGUY CAROLE 06:58:59 AB 8 293.00 VALBONNE, FRANCE
272 387 NOEL BERTRAND 06:59:00 D 48 253.00 VALBONNE, FRANCE
273 391 LAFFONT KARINE 07:00:05 A 4 297.00 MOUGINS, FRANCE
274 417 GUIOT ALAIN 07:01:33 E 88 213.00 5070, BELGIQUE
275 20 AIZIER JEAN-PIERRE 07:03:05 G1 27 274.00 RASTEAU, France
276 477 BROSSA ROMAIN 07:03:38 E 89 212.00 OLLIOULES, FRANCE
277 386 LE LOUARN LAURENT 07:04:32 E 90 211.00 LE ROURET, France
278 303 BARSI THIERRY 07:04:34 F 60 241.00 FREJUS, FRANCE
279 304 LABBE MARC 07:04:34 F 61 240.00 FREJUS, FRANCE
280 305 COLIN STEPHANE 07:04:35 E 91 210.00 FREJUS, FRANCE
281 465 CHAUVIN MICHEL 07:05:47 G2 7 294.00 six fours, France
282 189 DAVYDOV EDUARD 07:06:55 E 92 209.00 , RUSSIE
283 363 PHIJFFER HENRI 07:08:29 F 62 239.00 ZEIST, Pays-Bas
284 436 PETIT VINCENT 07:10:12 F 63 238.00 DRAGUIGNAN, France
285 403 VOGEL ARJAN 07:11:51 F 64 237.00 ZEIST, Pays-bas
286 504 GEISELHART DAGMAR 07:13:30 B 4 297.00 , FRANCE
287 404 PONCET MAURICE 07:14:14 G1 28 273.00 FRANCHEVILLE, FRANCE
288 419 FLORYSZCZAK JULIEN 07:17:33 D 49 252.00 LA CIOTAT, FRANCE
289 124 FENEAU ALAIN 07:23:46 G2 8 293.00 CANNES, France
290 434 RODIKOV NIKOLAI 07:25:05 E 93 208.00 MOSCOW, Russie, F‚d‚ration De
291 450 LABRANCHE JEAN CLAUDE 07:26:31 F 65 236.00 MARSEILLE, FRANCE
292 102 SAURET JACQUES 07:27:35 G2 9 292.00 CEYRAT, FRANCE
293 540 BROSSET OLIVIER 07:28:45 F 66 235.00 , FRANCE
294 533 VERICEL MICHEL 07:28:47 F 67 234.00 GREZIEU LA VARENNE, FRANCE
295 531 VIVANCO RENE 07:30:49 G2 10 291.00 BRIGNAIS, FRANCE
296 532 COUSSAT CHRISTIAN 07:30:57 G2 11 290.00 TASSIN LA DEMI LUNE, FRANCE
297 432 VAN T HOOG ANDRǸ 07:33:11 F 68 233.00 HARMELEN, Pays-Bas
298 126 NICOLAS ALAIN 07:36:50 F 69 232.00 MAISONS ALFORT, FRANCE
299 384 LIMA AVELINO 07:36:51 F 70 231.00 CRETEIL, FRANCE
300 402 THOMAS GILLES 07:36:53 F 71 230.00 CRETEIL, FRANCE
301 129 CAU PATRICK 07:36:54 F 72 229.00 CRETEIL, France
302 128 LAMBOLEY STEPHANE 07:36:54 F 73 228.00 NOGENT SUR MARNE, FRANCE
303 127 DOUTRE SERGE 07:36:55 G1 29 272.00 CR‚TEIL, FRANCE
304 447 FOLLET FABRICE 07:38:47 F 74 227.00 AMIENS, France
305 214 RABET SYLVAIN 07:38:53 F 75 226.00 AUBIGNY, France
306 383 CUPPENS KOEN 07:41:47 F 76 225.00 SINT-MICHIELS, BELGIQUE
307 441 TERRUSSE SANDRA 07:46:27 B 5 296.00 ROQUEFORT LES PINS, FRANCE
308 361 JANSEN NORBRT 07:52:38 F 77 224.00 ZEIST, Pays-bas
309 336 KUNTZ ARNAUD 07:53:35 E 94 207.00 SIX FOURS LES PLAGES, FRANCE
310 327 MORAN DALE 07:59:48 E 95 206.00 FARNHAM, Royaume-Uni
311 332 MAIDMENT NEIL 07:59:48 F 78 223.00 GUILDFORD, Royaume-Uni
312 326 EMSLIE MARTIN 07:59:50 F 79 222.00 WONERSH, Royaume-Uni
313 44 PORCHER YVES 08:03:31 G2 12 289.00 JANS, FRANCE
314 551 MACCOLINI MARCO 08:14:34 F 80 221.00 SANREMO, ITALIE
315 462 BOURSET JACQUES 08:15:02 G1 30 271.00 SAINT BONNET DU GARD, FRANCE
316 550 CORBELLI ANNA MARIA 08:16:32 B 6 295.00 CAMPOROSSO, ITALIE
317 345 DANIEL KEARNEY 08:19:59 D 50 251.00 CO. KILKENNY, IRLANDE
318 354 STANDAGE JAMES 08:20:12 D 51 250.00 TANDRIDGE, Royaume-Uni
319 350 REYMERMIER FABIEN 08:20:18 D 52 249.00 MONTMORENCY, FRANCE
320 351 REYMERMIER CHRISTOPHE 08:20:22 D 53 248.00 SAINT MARTIN DE LONDRES, FRANCE
321 9 FARGUES HENRI 08:20:35 G2 13 288.00 MURAT SUR VERBE, FRANCE
322 18 FARGUES CLAUDINE 08:21:23 B 7 294.00 MURAT SUR VEBRE, FRANCE
323 411 BERG MARTIJN 08:24:22 E 96 205.00 Waalre, Pays-Bas
324 348 ALBERS PETER 08:25:03 F 81 220.00 ZEIST, Pays-Bas
325 529 JEROEN PRONK 08:26:14 E 97 204.00 HOUTEN, Pays-Bas

La Bourgogne Cyclo

Après une saison 2020 très particulière et face à cette pandémie qui s'étire en longueur, nous avons dû nous adapter.

Ainsi, c'est avec beaucoup de regrets que nous vous annonçons que La Bourgogne Cyclo ne sera pas organisée en 2021.

Nous travaillons afin que vous puissiez relever le défi de manière alternative.

Nous vous tiendrons informés.
TOP